sensor_id;sensor_type;location;lat;lon;timestamp;pressure;altitude;pressure_sealevel;temperature;humidity
20987;BME280;10652;50.306;8.570;2024-01-15T00:02:38;96677.97;;;-0.91;80.92
20987;BME280;10652;50.306;8.570;2024-01-15T00:06:40;96677.13;;;-0.92;81.55
20987;BME280;10652;50.306;8.570;2024-01-15T00:10:43;96677.28;;;-0.98;81.60
20987;BME280;10652;50.306;8.570;2024-01-15T00:14:45;96665.25;;;-0.99;82.55
20987;BME280;10652;50.306;8.570;2024-01-15T00:18:47;96667.09;;;-1.04;82.14
20987;BME280;10652;50.306;8.570;2024-01-15T00:22:49;96661.19;;;-1.09;82.04
20987;BME280;10652;50.306;8.570;2024-01-15T00:26:51;96652.69;;;-1.13;81.77
20987;BME280;10652;50.306;8.570;2024-01-15T00:30:53;96651.91;;;-1.15;82.26
20987;BME280;10652;50.306;8.570;2024-01-15T00:34:56;96651.81;;;-1.10;83.13
20987;BME280;10652;50.306;8.570;2024-01-15T00:38:59;96649.13;;;-1.05;83.39
20987;BME280;10652;50.306;8.570;2024-01-15T00:43:01;96645.56;;;-1.01;83.43
20987;BME280;10652;50.306;8.570;2024-01-15T00:47:04;96643.78;;;-0.99;83.00
20987;BME280;10652;50.306;8.570;2024-01-15T00:51:07;96638.81;;;-1.05;82.28
20987;BME280;10652;50.306;8.570;2024-01-15T00:55:09;96636.34;;;-1.10;82.08
20987;BME280;10652;50.306;8.570;2024-01-15T00:59:11;96634.66;;;-1.13;82.77
20987;BME280;10652;50.306;8.570;2024-01-15T01:03:16;96632.94;;;-1.12;82.73
20987;BME280;10652;50.306;8.570;2024-01-15T01:07:19;96627.75;;;-1.11;83.38
20987;BME280;10652;50.306;8.570;2024-01-15T01:11:21;96619.28;;;-1.16;83.36
20987;BME280;10652;50.306;8.570;2024-01-15T01:15:23;96617.50;;;-1.14;83.61
20987;BME280;10652;50.306;8.570;2024-01-15T01:19:26;96610.59;;;-1.12;84.17
20987;BME280;10652;50.306;8.570;2024-01-15T01:23:29;96608.69;;;-1.03;84.20
20987;BME280;10652;50.306;8.570;2024-01-15T01:27:31;96613.66;;;-0.96;84.33
20987;BME280;10652;50.306;8.570;2024-01-15T01:31:33;96616.06;;;-0.90;83.82
20987;BME280;10652;50.306;8.570;2024-01-15T01:35:36;96606.59;;;-0.88;83.49
20987;BME280;10652;50.306;8.570;2024-01-15T01:39:38;96606.53;;;-0.86;83.48
20987;BME280;10652;50.306;8.570;2024-01-15T01:43:40;96609.09;;;-0.86;83.26
20987;BME280;10652;50.306;8.570;2024-01-15T01:47:43;96607.31;;;-0.83;83.50
20987;BME280;10652;50.306;8.570;2024-01-15T01:51:46;96610.75;;;-0.82;82.90
20987;BME280;10652;50.306;8.570;2024-01-15T01:55:49;96602.28;;;-0.87;82.90
20987;BME280;10652;50.306;8.570;2024-01-15T01:59:53;96594.44;;;-0.83;83.43
20987;BME280;10652;50.306;8.570;2024-01-15T02:03:56;96595.28;;;-0.82;83.03
20987;BME280;10652;50.306;8.570;2024-01-15T02:07:59;96593.59;;;-0.85;82.58
20987;BME280;10652;50.306;8.570;2024-01-15T02:12:02;96594.56;;;-0.89;83.26
20987;BME280;10652;50.306;8.570;2024-01-15T02:16:04;96592.03;;;-0.90;84.47
20987;BME280;10652;50.306;8.570;2024-01-15T02:20:07;96593.72;;;-0.89;84.59
20987;BME280;10652;50.306;8.570;2024-01-15T02:24:09;96595.44;;;-0.88;84.56
20987;BME280;10652;50.306;8.570;2024-01-15T02:28:13;96592.75;;;-0.85;84.52
20987;BME280;10652;50.306;8.570;2024-01-15T02:32:15;96599.81;;;-0.92;85.57
20987;BME280;10652;50.306;8.570;2024-01-15T02:36:17;96600.91;;;-1.00;87.33
20987;BME280;10652;50.306;8.570;2024-01-15T02:40:19;96602.75;;;-1.05;87.95
20987;BME280;10652;50.306;8.570;2024-01-15T02:44:22;96600.22;;;-1.08;88.97
20987;BME280;10652;50.306;8.570;2024-01-15T02:48:24;96601.22;;;-1.14;88.89
20987;BME280;10652;50.306;8.570;2024-01-15T02:52:26;96602.00;;;-1.11;88.64
20987;BME280;10652;50.306;8.570;2024-01-15T02:56:28;96601.13;;;-1.09;88.11
20987;BME280;10652;50.306;8.570;2024-01-15T03:00:30;96598.47;;;-1.06;87.58
20987;BME280;10652;50.306;8.570;2024-01-15T03:04:33;96596.44;;;-0.95;87.07
20987;BME280;10652;50.306;8.570;2024-01-15T03:08:35;96593.75;;;-0.91;86.45
20987;BME280;10652;50.306;8.570;2024-01-15T03:12:37;96592.72;;;-0.84;88.15
20987;BME280;10652;50.306;8.570;2024-01-15T03:16:39;96598.31;;;-0.68;87.36
20987;BME280;10652;50.306;8.570;2024-01-15T03:20:42;96598.50;;;-0.74;86.59
20987;BME280;10652;50.306;8.570;2024-01-15T03:24:44;96595.19;;;-0.79;86.22
20987;BME280;10652;50.306;8.570;2024-01-15T03:28:46;96601.38;;;-0.86;85.91
20987;BME280;10652;50.306;8.570;2024-01-15T03:32:48;96599.81;;;-0.92;85.22
20987;BME280;10652;50.306;8.570;2024-01-15T03:36:52;96597.28;;;-0.95;85.22
20987;BME280;10652;50.306;8.570;2024-01-15T03:40:54;96593.06;;;-0.96;85.11
20987;BME280;10652;50.306;8.570;2024-01-15T03:44:56;96586.00;;;-0.89;85.19
20987;BME280;10652;50.306;8.570;2024-01-15T03:48:58;96588.69;;;-0.94;84.75
20987;BME280;10652;50.306;8.570;2024-01-15T03:53:01;96587.84;;;-0.94;85.20
20987;BME280;10652;50.306;8.570;2024-01-15T03:57:03;96587.91;;;-0.96;85.37
20987;BME280;10652;50.306;8.570;2024-01-15T04:01:09;96590.41;;;-0.94;85.70
20987;BME280;10652;50.306;8.570;2024-01-15T04:05:12;96588.66;;;-0.92;85.61
20987;BME280;10652;50.306;8.570;2024-01-15T04:09:14;96589.50;;;-0.92;85.81
20987;BME280;10652;50.306;8.570;2024-01-15T04:13:17;96582.41;;;-0.84;85.63
20987;BME280;10652;50.306;8.570;2024-01-15T04:17:19;96574.66;;;-0.82;85.36
20987;BME280;10652;50.306;8.570;2024-01-15T04:21:21;96572.25;;;-0.90;85.84
20987;BME280;10652;50.306;8.570;2024-01-15T04:25:23;96573.09;;;-0.89;86.38
20987;BME280;10652;50.306;8.570;2024-01-15T04:29:25;96569.66;;;-0.88;86.35
20987;BME280;10652;50.306;8.570;2024-01-15T04:33:27;96567.56;;;-0.74;87.46
20987;BME280;10652;50.306;8.570;2024-01-15T04:37:29;96565.84;;;-0.74;86.79
20987;BME280;10652;50.306;8.570;2024-01-15T04:41:31;96564.13;;;-0.75;86.55
20987;BME280;10652;50.306;8.570;2024-01-15T04:45:33;96567.59;;;-0.76;85.86
20987;BME280;10652;50.306;8.570;2024-01-15T04:49:35;96564.34;;;-0.82;85.35
20987;BME280;10652;50.306;8.570;2024-01-15T04:53:38;96560.09;;;-0.85;85.67
20987;BME280;10652;50.306;8.570;2024-01-15T04:57:40;96552.25;;;-0.80;85.62
20987;BME280;10652;50.306;8.570;2024-01-15T05:01:42;96552.25;;;-0.80;85.01
20987;BME280;10652;50.306;8.570;2024-01-15T05:05:44;96555.88;;;-0.87;84.98
20987;BME280;10652;50.306;8.570;2024-01-15T05:09:46;96549.81;;;-0.86;85.17
20987;BME280;10652;50.306;8.570;2024-01-15T05:13:48;96548.19;;;-0.89;84.82
20987;BME280;10652;50.306;8.570;2024-01-15T05:17:51;96544.66;;;-0.86;85.35
20987;BME280;10652;50.306;8.570;2024-01-15T05:21:53;96545.00;;;-0.98;86.09
20987;BME280;10652;50.306;8.570;2024-01-15T05:25:55;96546.06;;;-1.05;86.83
20987;BME280;10652;50.306;8.570;2024-01-15T05:29:57;96554.75;;;-1.09;87.47
20987;BME280;10652;50.306;8.570;2024-01-15T05:33:59;96557.34;;;-1.11;87.93
20987;BME280;10652;50.306;8.570;2024-01-15T05:38:01;96554.75;;;-1.09;88.01
20987;BME280;10652;50.306;8.570;2024-01-15T05:42:04;96550.41;;;-1.09;87.85
20987;BME280;10652;50.306;8.570;2024-01-15T05:46:06;96549.59;;;-1.09;87.16
20987;BME280;10652;50.306;8.570;2024-01-15T05:50:09;96553.06;;;-1.12;87.32
20987;BME280;10652;50.306;8.570;2024-01-15T05:54:11;96549.53;;;-1.08;88.59
20987;BME280;10652;50.306;8.570;2024-01-15T05:58:14;96545.13;;;-1.03;88.85
20987;BME280;10652;50.306;8.570;2024-01-15T06:02:16;96547.47;;;-0.95;88.52
20987;BME280;10652;50.306;8.570;2024-01-15T06:06:18;96550.97;;;-0.96;87.85
20987;BME280;10652;50.306;8.570;2024-01-15T06:10:20;96545.81;;;-0.96;87.08
20987;BME280;10652;50.306;8.570;2024-01-15T06:14:22;96557.78;;;-0.95;86.74
20987;BME280;10652;50.306;8.570;2024-01-15T06:18:24;96562.81;;;-0.89;88.00
20987;BME280;10652;50.306;8.570;2024-01-15T06:22:26;96547.34;;;-0.89;87.18
20987;BME280;10652;50.306;8.570;2024-01-15T06:26:28;96550.88;;;-0.93;86.71
20987;BME280;10652;50.306;8.570;2024-01-15T06:30:31;96549.28;;;-0.97;86.37
20987;BME280;10652;50.306;8.570;2024-01-15T06:34:33;96561.31;;;-0.98;86.83
20987;BME280;10652;50.306;8.570;2024-01-15T06:38:35;96559.56;;;-0.97;87.43
20987;BME280;10652;50.306;8.570;2024-01-15T06:42:38;96544.25;;;-1.03;88.20
20987;BME280;10652;50.306;8.570;2024-01-15T06:46:43;96548.78;;;-0.79;93.09
20987;BME280;10652;50.306;8.570;2024-01-15T06:50:45;96527.66;;;-0.61;92.78
20987;BME280;10652;50.306;8.570;2024-01-15T06:54:47;96531.69;;;-0.51;92.29
20987;BME280;10652;50.306;8.570;2024-01-15T06:58:50;96532.66;;;-0.55;91.25
20987;BME280;10652;50.306;8.570;2024-01-15T07:02:52;96532.66;;;-0.55;90.09
20987;BME280;10652;50.306;8.570;2024-01-15T07:06:54;96542.19;;;-0.58;88.66
20987;BME280;10652;50.306;8.570;2024-01-15T07:10:56;96548.41;;;-0.64;88.20
20987;BME280;10652;50.306;8.570;2024-01-15T07:14:58;96535.56;;;-0.67;87.14
20987;BME280;10652;50.306;8.570;2024-01-15T07:19:00;96527.81;;;-0.67;87.01
20987;BME280;10652;50.306;8.570;2024-01-15T07:23:03;96520.97;;;-0.68;86.72
20987;BME280;10652;50.306;8.570;2024-01-15T07:27:06;96531.47;;;-0.74;86.56
20987;BME280;10652;50.306;8.570;2024-01-15T07:31:08;96523.53;;;-0.67;87.71
20987;BME280;10652;50.306;8.570;2024-01-15T07:35:11;96531.03;;;-0.59;87.81
20987;BME280;10652;50.306;8.570;2024-01-15T07:39:13;96524.22;;;-0.60;88.08
20987;BME280;10652;50.306;8.570;2024-01-15T07:43:15;96523.56;;;-0.68;89.02
20987;BME280;10652;50.306;8.570;2024-01-15T07:47:18;96526.38;;;-0.77;91.73
20987;BME280;10652;50.306;8.570;2024-01-15T07:51:20;96531.53;;;-0.77;93.44
20987;BME280;10652;50.306;8.570;2024-01-15T07:55:22;96538.22;;;-0.69;95.33
20987;BME280;10652;50.306;8.570;2024-01-15T07:59:24;96545.97;;;-0.70;94.45
20987;BME280;10652;50.306;8.570;2024-01-15T08:03:26;96535.69;;;-0.72;93.86
20987;BME280;10652;50.306;8.570;2024-01-15T08:07:29;96527.81;;;-0.66;93.69
20987;BME280;10652;50.306;8.570;2024-01-15T08:11:31;96529.53;;;-0.66;92.50
20987;BME280;10652;50.306;8.570;2024-01-15T08:15:33;96518.38;;;-0.67;90.44
20987;BME280;10652;50.306;8.570;2024-01-15T08:19:35;96519.13;;;-0.63;90.09
20987;BME280;10652;50.306;8.570;2024-01-15T08:23:37;96520.06;;;-0.66;89.30
20987;BME280;10652;50.306;8.570;2024-01-15T08:27:40;96520.81;;;-0.62;88.98
20987;BME280;10652;50.306;8.570;2024-01-15T08:31:42;96515.56;;;-0.59;88.16
20987;BME280;10652;50.306;8.570;2024-01-15T08:35:44;96516.38;;;-0.57;88.05
20987;BME280;10652;50.306;8.570;2024-01-15T08:39:47;96505.97;;;-0.54;88.16
20987;BME280;10652;50.306;8.570;2024-01-15T08:43:52;96503.31;;;-0.51;87.18
20987;BME280;10652;50.306;8.570;2024-01-15T08:47:55;96505.00;;;-0.50;86.83
20987;BME280;10652;50.306;8.570;2024-01-15T08:51:57;96498.78;;;-0.43;87.42
20987;BME280;10652;50.306;8.570;2024-01-15T08:55:59;96507.28;;;-0.39;86.10
20987;BME280;10652;50.306;8.570;2024-01-15T09:00:01;96507.69;;;-0.24;86.06
20987;BME280;10652;50.306;8.570;2024-01-15T09:04:04;96512.22;;;-0.02;85.60
20987;BME280;10652;50.306;8.570;2024-01-15T09:08:06;96511.75;;;0.13;84.87
20987;BME280;10652;50.306;8.570;2024-01-15T09:12:08;96511.19;;;0.31;84.62
20987;BME280;10652;50.306;8.570;2024-01-15T09:16:10;96508.47;;;0.36;82.50
20987;BME280;10652;50.306;8.570;2024-01-15T09:20:13;96511.81;;;0.38;81.44
20987;BME280;10652;50.306;8.570;2024-01-15T09:24:15;96513.66;;;0.34;81.32
20987;BME280;10652;50.306;8.570;2024-01-15T09:28:28;96502.75;;;0.26;80.34
20987;BME280;10652;50.306;8.570;2024-01-15T09:32:30;96499.06;;;0.33;80.29
20987;BME280;10652;50.306;8.570;2024-01-15T09:36:32;96505.03;;;0.35;80.08
20987;BME280;10652;50.306;8.570;2024-01-15T09:40:38;96505.75;;;0.40;79.02
20987;BME280;10652;50.306;8.570;2024-01-15T09:44:40;96504.59;;;0.49;79.13
20987;BME280;10652;50.306;8.570;2024-01-15T09:48:43;96497.53;;;0.54;78.48
20987;BME280;10652;50.306;8.570;2024-01-15T09:52:45;96489.44;;;0.64;77.86
20987;BME280;10652;50.306;8.570;2024-01-15T09:56:48;96489.72;;;0.55;77.02
20987;BME280;10652;50.306;8.570;2024-01-15T10:00:50;96492.72;;;0.43;77.39
20987;BME280;10652;50.306;8.570;2024-01-15T10:04:53;96485.06;;;0.40;77.53
20987;BME280;10652;50.306;8.570;2024-01-15T10:08:57;96482.97;;;0.51;77.09
20987;BME280;10652;50.306;8.570;2024-01-15T10:13:03;96480.78;;;0.65;76.87
20987;BME280;10652;50.306;8.570;2024-01-15T10:17:15;96473.53;;;0.77;76.54
20987;BME280;10652;50.306;8.570;2024-01-15T10:21:17;96482.06;;;0.79;74.66
20987;BME280;10652;50.306;8.570;2024-01-15T10:25:19;96475.00;;;0.84;74.27
20987;BME280;10652;50.306;8.570;2024-01-15T10:29:26;96473.31;;;0.83;72.81
20987;BME280;10652;50.306;8.570;2024-01-15T10:33:28;96465.16;;;0.68;71.53
20987;BME280;10652;50.306;8.570;2024-01-15T10:37:33;96445.56;;;0.63;71.65
20987;BME280;10652;50.306;8.570;2024-01-15T10:41:35;96449.91;;;0.62;71.43
20987;BME280;10652;50.306;8.570;2024-01-15T10:45:37;96442.53;;;0.77;71.15
20987;BME280;10652;50.306;8.570;2024-01-15T10:49:40;96442.66;;;0.97;71.15
20987;BME280;10652;50.306;8.570;2024-01-15T10:53:43;96428.69;;;1.02;69.97
20987;BME280;10652;50.306;8.570;2024-01-15T10:57:48;96419.28;;;1.00;69.73
20987;BME280;10652;50.306;8.570;2024-01-15T11:01:52;96420.56;;;0.88;68.93
20987;BME280;10652;50.306;8.570;2024-01-15T11:05:56;96416.44;;;0.83;69.89
20987;BME280;10652;50.306;8.570;2024-01-15T11:09:59;96421.97;;;0.97;70.52
20987;BME280;10652;50.306;8.570;2024-01-15T11:14:01;96417.00;;;1.16;70.16
20987;BME280;10652;50.306;8.570;2024-01-15T11:18:03;96415.56;;;1.08;73.38
20987;BME280;10652;50.306;8.570;2024-01-15T11:22:09;96413.28;;;0.99;73.53
20987;BME280;10652;50.306;8.570;2024-01-15T11:26:46;96417.63;;;0.99;72.92
20987;BME280;10652;50.306;8.570;2024-01-15T11:30:48;96419.97;;;1.05;71.84
20987;BME280;10652;50.306;8.570;2024-01-15T11:35:01;96410.63;;;1.01;71.41
20987;BME280;10652;50.306;8.570;2024-01-15T11:43:30;96410.63;;;1.01;72.02
20987;BME280;10652;50.306;8.570;2024-01-15T11:48:02;96410.31;;;1.10;71.88
20987;BME280;10652;50.306;8.570;2024-01-15T11:52:04;96421.53;;;1.09;72.78
20987;BME280;10652;50.306;8.570;2024-01-15T11:56:14;96406.66;;;1.16;74.27
20987;BME280;10652;50.306;8.570;2024-01-15T12:00:16;96419.56;;;1.17;74.09
20987;BME280;10652;50.306;8.570;2024-01-15T12:04:20;96406.38;;;1.23;74.79
20987;BME280;10652;50.306;8.570;2024-01-15T12:08:23;96422.75;;;1.24;74.88
20987;BME280;10652;50.306;8.570;2024-01-15T12:17:10;96426.09;;;1.02;78.59
20987;BME280;10652;50.306;8.570;2024-01-15T12:21:13;96445.13;;;1.00;79.62
20987;BME280;10652;50.306;8.570;2024-01-15T12:25:15;96443.47;;;0.99;80.02
20987;BME280;10652;50.306;8.570;2024-01-15T12:29:18;96433.97;;;0.99;79.54
20987;BME280;10652;50.306;8.570;2024-01-15T12:33:20;96436.28;;;1.07;79.26
20987;BME280;10652;50.306;8.570;2024-01-15T12:37:24;96421.03;;;1.23;78.71
20987;BME280;10652;50.306;8.570;2024-01-15T12:41:27;96429.38;;;1.31;78.35
20987;BME280;10652;50.306;8.570;2024-01-15T12:45:30;96435.16;;;1.37;80.01
20987;BME280;10652;50.306;8.570;2024-01-15T12:49:32;96433.31;;;1.41;80.92
20987;BME280;10652;50.306;8.570;2024-01-15T12:53:35;96440.47;;;1.34;81.56
20987;BME280;10652;50.306;8.570;2024-01-15T12:57:37;96447.66;;;1.26;84.09
20987;BME280;10652;50.306;8.570;2024-01-15T13:01:39;96442.38;;;1.29;82.55
20987;BME280;10652;50.306;8.570;2024-01-15T13:05:43;96442.72;;;1.43;81.81
20987;BME280;10652;50.306;8.570;2024-01-15T13:09:45;96440.47;;;1.34;80.40
20987;BME280;10652;50.306;8.570;2024-01-15T13:13:47;96443.06;;;1.34;80.07
20987;BME280;10652;50.306;8.570;2024-01-15T13:17:49;96446.66;;;1.30;80.31
20987;BME280;10652;50.306;8.570;2024-01-15T13:21:52;96451.03;;;1.28;79.85
20987;BME280;10652;50.306;8.570;2024-01-15T13:25:55;96445.97;;;1.25;79.72
20987;BME280;10652;50.306;8.570;2024-01-15T13:29:57;96436.16;;;1.10;79.97
20987;BME280;10652;50.306;8.570;2024-01-15T13:33:59;96444.78;;;0.86;80.79
20987;BME280;10652;50.306;8.570;2024-01-15T13:38:02;96452.63;;;0.83;81.43
20987;BME280;10652;50.306;8.570;2024-01-15T13:42:04;96450.34;;;0.74;81.74
20987;BME280;10652;50.306;8.570;2024-01-15T13:46:06;96451.41;;;0.68;82.80
20987;BME280;10652;50.306;8.570;2024-01-15T13:50:08;96456.09;;;0.57;83.71
20987;BME280;10652;50.306;8.570;2024-01-15T13:54:11;96451.97;;;0.51;84.68
20987;BME280;10652;50.306;8.570;2024-01-15T13:58:13;96466.78;;;0.46;85.23
20987;BME280;10652;50.306;8.570;2024-01-15T14:02:15;96487.44;;;0.46;84.12
20987;BME280;10652;50.306;8.570;2024-01-15T14:06:22;96493.53;;;0.45;84.33
20987;BME280;10652;50.306;8.570;2024-01-15T14:10:26;96496.03;;;0.47;84.09
20987;BME280;10652;50.306;8.570;2024-01-15T14:14:28;96492.13;;;0.35;84.83
20987;BME280;10652;50.306;8.570;2024-01-15T14:18:30;96502.44;;;0.35;85.26
20987;BME280;10652;50.306;8.570;2024-01-15T14:22:36;96499.88;;;0.35;85.37
20987;BME280;10652;50.306;8.570;2024-01-15T14:26:38;96503.44;;;0.31;85.09
20987;BME280;10652;50.306;8.570;2024-01-15T14:30:40;96502.44;;;0.35;84.82
20987;BME280;10652;50.306;8.570;2024-01-15T14:34:42;96511.53;;;0.47;84.44
20987;BME280;10652;50.306;8.570;2024-01-15T14:38:45;96503.63;;;0.51;83.48
20987;BME280;10652;50.306;8.570;2024-01-15T14:42:47;96510.69;;;0.46;83.37
20987;BME280;10652;50.306;8.570;2024-01-15T14:46:49;96526.44;;;0.39;84.04
20987;BME280;10652;50.306;8.570;2024-01-15T14:50:52;96529.13;;;0.36;84.80
20987;BME280;10652;50.306;8.570;2024-01-15T14:54:54;96527.69;;;0.27;83.80
20987;BME280;10652;50.306;8.570;2024-01-15T14:58:56;96532.03;;;0.25;84.23
20987;BME280;10652;50.306;8.570;2024-01-15T15:02:58;96541.50;;;0.24;83.42
20987;BME280;10652;50.306;8.570;2024-01-15T15:07:01;96534.84;;;0.17;82.85
20987;BME280;10652;50.306;8.570;2024-01-15T15:11:04;96547.13;;;0.09;82.45
20987;BME280;10652;50.306;8.570;2024-01-15T15:15:06;96555.00;;;0.05;81.37
20987;BME280;10652;50.306;8.570;2024-01-15T15:19:13;96548.16;;;0.04;81.16
20987;BME280;10652;50.306;8.570;2024-01-15T15:23:15;96564.50;;;0.04;81.55
20987;BME280;10652;50.306;8.570;2024-01-15T15:27:18;96577.44;;;0.03;80.95
20987;BME280;10652;50.306;8.570;2024-01-15T15:31:21;96578.50;;;-0.04;81.82
20987;BME280;10652;50.306;8.570;2024-01-15T15:35:23;96590.66;;;-0.08;82.50
20987;BME280;10652;50.306;8.570;2024-01-15T15:39:25;96600.06;;;-0.05;83.56
20987;BME280;10652;50.306;8.570;2024-01-15T15:43:27;96602.53;;;-0.02;84.65
20987;BME280;10652;50.306;8.570;2024-01-15T15:47:30;96615.41;;;-0.01;86.39
20987;BME280;10652;50.306;8.570;2024-01-15T15:51:33;96618.03;;;-0.02;87.43
20987;BME280;10652;50.306;8.570;2024-01-15T15:55:35;96626.78;;;-0.08;86.90
20987;BME280;10652;50.306;8.570;2024-01-15T15:59:38;96622.69;;;-0.15;87.45
20987;BME280;10652;50.306;8.570;2024-01-15T16:03:40;96636.59;;;-0.21;87.21
20987;BME280;10652;50.306;8.570;2024-01-15T16:07:43;96639.19;;;-0.21;88.06
20987;BME280;10652;50.306;8.570;2024-01-15T16:11:45;96637.56;;;-0.25;87.47
20987;BME280;10652;50.306;8.570;2024-01-15T16:15:48;96649.66;;;-0.27;87.66
20987;BME280;10652;50.306;8.570;2024-01-15T16:19:51;96648.88;;;-0.29;87.48
20987;BME280;10652;50.306;8.570;2024-01-15T16:24:14;96643.00;;;-0.35;85.60
20987;BME280;10652;50.306;8.570;2024-01-15T16:28:30;96650.97;;;-0.43;86.36
20987;BME280;10652;50.306;8.570;2024-01-15T16:32:33;96657.09;;;-0.47;85.99
20987;BME280;10652;50.306;8.570;2024-01-15T16:36:35;96663.88;;;-0.43;87.74
20987;BME280;10652;50.306;8.570;2024-01-15T16:40:38;96678.38;;;-0.39;87.86
20987;BME280;10652;50.306;8.570;2024-01-15T16:44:41;96687.06;;;-0.43;87.41
20987;BME280;10652;50.306;8.570;2024-01-15T16:48:43;96694.78;;;-0.41;87.55
20987;BME280;10652;50.306;8.570;2024-01-15T16:52:46;96701.66;;;-0.42;87.81
20987;BME280;10652;50.306;8.570;2024-01-15T16:56:49;96712.00;;;-0.43;88.50
20987;BME280;10652;50.306;8.570;2024-01-15T17:00:51;96719.63;;;-0.39;89.23
20987;BME280;10652;50.306;8.570;2024-01-15T17:04:53;96715.41;;;-0.41;89.63
20987;BME280;10652;50.306;8.570;2024-01-15T17:08:55;96717.94;;;-0.40;89.82
20987;BME280;10652;50.306;8.570;2024-01-15T17:12:57;96720.50;;;-0.38;90.07
20987;BME280;10652;50.306;8.570;2024-01-15T17:17:01;96719.63;;;-0.39;90.38
20987;BME280;10652;50.306;8.570;2024-01-15T17:21:04;96733.34;;;-0.37;90.51
20987;BME280;10652;50.306;8.570;2024-01-15T17:25:07;96738.53;;;-0.37;90.72
20987;BME280;10652;50.306;8.570;2024-01-15T17:29:09;96744.63;;;-0.41;90.96
20987;BME280;10652;50.306;8.570;2024-01-15T17:33:11;96745.53;;;-0.42;91.60
20987;BME280;10652;50.306;8.570;2024-01-15T17:37:13;96749.97;;;-0.48;91.98
20987;BME280;10652;50.306;8.570;2024-01-15T17:41:17;96766.22;;;-0.45;92.74
20987;BME280;10652;50.306;8.570;2024-01-15T17:45:19;96767.06;;;-0.44;92.70
20987;BME280;10652;50.306;8.570;2024-01-15T17:49:22;96762.66;;;-0.41;92.97
20987;BME280;10652;50.306;8.570;2024-01-15T17:53:25;96767.91;;;-0.44;92.13
20987;BME280;10652;50.306;8.570;2024-01-15T17:57:27;96771.66;;;-0.57;92.70
20987;BME280;10652;50.306;8.570;2024-01-15T18:01:29;96780.06;;;-0.49;95.19
20987;BME280;10652;50.306;8.570;2024-01-15T18:05:33;96783.53;;;-0.50;95.26
20987;BME280;10652;50.306;8.570;2024-01-15T18:09:35;96793.94;;;-0.54;95.79
20987;BME280;10652;50.306;8.570;2024-01-15T18:13:37;96784.38;;;-0.49;95.82
20987;BME280;10652;50.306;8.570;2024-01-15T18:17:39;96805.84;;;-0.49;93.32
20987;BME280;10652;50.306;8.570;2024-01-15T18:21:41;96794.06;;;-0.59;92.30
20987;BME280;10652;50.306;8.570;2024-01-15T18:25:44;96816.34;;;-0.55;91.77
20987;BME280;10652;50.306;8.570;2024-01-15T18:29:46;96825.94;;;-0.61;87.98
20987;BME280;10652;50.306;8.570;2024-01-15T18:33:48;96844.06;;;-0.64;88.33
20987;BME280;10652;50.306;8.570;2024-01-15T18:37:50;96839.00;;;-0.69;89.09
20987;BME280;10652;50.306;8.570;2024-01-15T18:41:52;96846.75;;;-0.69;89.73
20987;BME280;10652;50.306;8.570;2024-01-15T18:45:55;96844.22;;;-0.72;89.71
20987;BME280;10652;50.306;8.570;2024-01-15T18:49:57;96841.81;;;-0.81;89.17
20987;BME280;10652;50.306;8.570;2024-01-15T18:54:00;96852.50;;;-0.98;89.87
20987;BME280;10652;50.306;8.570;2024-01-15T18:58:02;96851.84;;;-1.07;90.95
20987;BME280;10652;50.306;8.570;2024-01-15T19:02:04;96856.25;;;-1.13;91.85
20987;BME280;10652;50.306;8.570;2024-01-15T19:06:06;96864.63;;;-1.03;93.47
20987;BME280;10652;50.306;8.570;2024-01-15T19:10:09;96871.28;;;-0.91;93.97
20987;BME280;10652;50.306;8.570;2024-01-15T19:14:11;96878.88;;;-0.85;94.61
20987;BME280;10652;50.306;8.570;2024-01-15T19:18:13;96878.75;;;-0.79;94.64
20987;BME280;10652;50.306;8.570;2024-01-15T19:22:19;96882.13;;;-0.77;96.79
20987;BME280;10652;50.306;8.570;2024-01-15T19:26:21;96875.41;;;-0.84;98.73
20987;BME280;10652;50.306;8.570;2024-01-15T19:30:24;96884.22;;;-0.94;97.65
20987;BME280;10652;50.306;8.570;2024-01-15T19:34:26;96884.53;;;-1.09;95.45
20987;BME280;10652;50.306;8.570;2024-01-15T19:38:28;96888.94;;;-1.15;94.84
20987;BME280;10652;50.306;8.570;2024-01-15T19:42:31;96892.28;;;-1.09;94.40
20987;BME280;10652;50.306;8.570;2024-01-15T19:46:33;96895.56;;;-1.04;93.53
20987;BME280;10652;50.306;8.570;2024-01-15T19:50:36;96889.63;;;-1.06;93.32
20987;BME280;10652;50.306;8.570;2024-01-15T19:54:38;96887.03;;;-1.06;93.13
20987;BME280;10652;50.306;8.570;2024-01-15T19:58:40;96899.94;;;-1.06;93.11
20987;BME280;10652;50.306;8.570;2024-01-15T20:02:42;96909.44;;;-1.10;91.60
20987;BME280;10652;50.306;8.570;2024-01-15T20:06:44;96885.50;;;-1.15;91.44
20987;BME280;10652;50.306;8.570;2024-01-15T20:10:46;96901.91;;;-1.21;90.44
20987;BME280;10652;50.306;8.570;2024-01-15T20:14:49;96908.63;;;-1.14;90.68
20987;BME280;10652;50.306;8.570;2024-01-15T20:18:52;96897.53;;;-1.16;89.51
20987;BME280;10652;50.306;8.570;2024-01-15T20:22:54;96879.69;;;-1.25;88.96
20987;BME280;10652;50.306;8.570;2024-01-15T20:26:58;96893.59;;;-1.35;89.87
20987;BME280;10652;50.306;8.570;2024-01-15T20:31:00;96906.41;;;-1.32;90.61
20987;BME280;10652;50.306;8.570;2024-01-15T20:35:02;96919.09;;;-1.20;90.47
20987;BME280;10652;50.306;8.570;2024-01-15T20:39:05;96906.13;;;-1.17;90.35
20987;BME280;10652;50.306;8.570;2024-01-15T20:43:07;96906.28;;;-1.24;89.91
20987;BME280;10652;50.306;8.570;2024-01-15T20:47:09;96919.13;;;-1.23;89.90
20987;BME280;10652;50.306;8.570;2024-01-15T20:51:12;96924.28;;;-1.23;90.35
20987;BME280;10652;50.306;8.570;2024-01-15T20:55:14;96924.22;;;-1.20;89.63
20987;BME280;10652;50.306;8.570;2024-01-15T20:59:17;96930.16;;;-1.15;89.54
20987;BME280;10652;50.306;8.570;2024-01-15T21:03:20;96941.22;;;-1.09;88.44
20987;BME280;10652;50.306;8.570;2024-01-15T21:07:24;96940.31;;;-1.07;87.48
20987;BME280;10652;50.306;8.570;2024-01-15T21:11:26;96955.66;;;-1.01;87.76
20987;BME280;10652;50.306;8.570;2024-01-15T21:15:28;96958.00;;;-0.89;87.15
20987;BME280;10652;50.306;8.570;2024-01-15T21:19:30;96974.28;;;-0.87;85.85
20987;BME280;10652;50.306;8.570;2024-01-15T21:23:32;96973.44;;;-0.87;85.10
20987;BME280;10652;50.306;8.570;2024-01-15T21:27:37;96982.81;;;-0.83;85.35
20987;BME280;10652;50.306;8.570;2024-01-15T21:31:42;96975.13;;;-0.86;84.86
20987;BME280;10652;50.306;8.570;2024-01-15T21:35:44;96966.56;;;-0.88;84.33
20987;BME280;10652;50.306;8.570;2024-01-15T21:39:47;96978.69;;;-0.93;84.25